sensor_id;sensor_type;location;lat;lon;timestamp;temperature;humidity
2130;DHT22;1071;52.544;13.374;2024-03-06T00:00:41;8.30;99.90
2130;DHT22;1071;52.544;13.374;2024-03-06T00:03:08;8.30;99.90
2130;DHT22;1071;52.544;13.374;2024-03-06T00:05:36;8.20;99.90
2130;DHT22;1071;52.544;13.374;2024-03-06T00:08:04;8.20;99.90
2130;DHT22;1071;52.544;13.374;2024-03-06T00:10:31;8.20;99.90
2130;DHT22;1071;52.544;13.374;2024-03-06T00:12:58;8.20;99.90
2130;DHT22;1071;52.544;13.374;2024-03-06T00:15:45;8.20;99.90
2130;DHT22;1071;52.544;13.374;2024-03-06T00:18:12;8.20;99.90
2130;DHT22;1071;52.544;13.374;2024-03-06T00:20:41;8.10;99.90
2130;DHT22;1071;52.544;13.374;2024-03-06T00:23:09;8.10;99.90
2130;DHT22;1071;52.544;13.374;2024-03-06T00:25:39;8.20;99.90
2130;DHT22;1071;52.544;13.374;2024-03-06T00:28:06;8.10;99.90
2130;DHT22;1071;52.544;13.374;2024-03-06T00:30:33;8.20;99.90
2130;DHT22;1071;52.544;13.374;2024-03-06T00:33:00;8.20;99.90
2130;DHT22;1071;52.544;13.374;2024-03-06T00:35:27;8.20;99.90
2130;DHT22;1071;52.544;13.374;2024-03-06T00:37:59;8.10;99.90
2130;DHT22;1071;52.544;13.374;2024-03-06T00:40:28;8.10;99.90
2130;DHT22;1071;52.544;13.374;2024-03-06T00:42:56;8.10;99.90
2130;DHT22;1071;52.544;13.374;2024-03-06T00:45:26;8.10;99.90
2130;DHT22;1071;52.544;13.374;2024-03-06T00:47:53;8.10;99.90
2130;DHT22;1071;52.544;13.374;2024-03-06T00:50:31;8.10;99.90
2130;DHT22;1071;52.544;13.374;2024-03-06T00:53:00;8.10;99.90
2130;DHT22;1071;52.544;13.374;2024-03-06T00:55:27;8.10;99.90
2130;DHT22;1071;52.544;13.374;2024-03-06T00:57:57;8.10;99.90
2130;DHT22;1071;52.544;13.374;2024-03-06T01:00:24;8.10;99.90
2130;DHT22;1071;52.544;13.374;2024-03-06T01:02:54;8.10;99.90
2130;DHT22;1071;52.544;13.374;2024-03-06T01:05:22;8.10;99.90
2130;DHT22;1071;52.544;13.374;2024-03-06T01:07:49;8.10;99.90
2130;DHT22;1071;52.544;13.374;2024-03-06T01:10:21;8.10;99.90
2130;DHT22;1071;52.544;13.374;2024-03-06T01:12:49;8.00;99.90
2130;DHT22;1071;52.544;13.374;2024-03-06T01:15:19;8.00;99.90
2130;DHT22;1071;52.544;13.374;2024-03-06T01:17:47;8.00;99.90
2130;DHT22;1071;52.544;13.374;2024-03-06T01:20:16;8.00;99.90
2130;DHT22;1071;52.544;13.374;2024-03-06T01:22:44;8.00;99.90
2130;DHT22;1071;52.544;13.374;2024-03-06T01:25:14;8.00;99.90
2130;DHT22;1071;52.544;13.374;2024-03-06T01:27:43;8.00;99.90
2130;DHT22;1071;52.544;13.374;2024-03-06T01:30:14;8.00;99.90
2130;DHT22;1071;52.544;13.374;2024-03-06T01:32:43;7.90;99.90
2130;DHT22;1071;52.544;13.374;2024-03-06T01:35:10;7.90;99.90
2130;DHT22;1071;52.544;13.374;2024-03-06T01:37:39;7.90;99.90
2130;DHT22;1071;52.544;13.374;2024-03-06T01:40:08;7.90;99.90
2130;DHT22;1071;52.544;13.374;2024-03-06T01:42:36;7.90;99.90
2130;DHT22;1071;52.544;13.374;2024-03-06T01:45:11;7.90;99.90
2130;DHT22;1071;52.544;13.374;2024-03-06T01:47:44;7.80;99.90
2130;DHT22;1071;52.544;13.374;2024-03-06T01:50:13;7.80;99.90
2130;DHT22;1071;52.544;13.374;2024-03-06T01:52:42;7.80;99.90
2130;DHT22;1071;52.544;13.374;2024-03-06T01:55:12;7.80;99.90
2130;DHT22;1071;52.544;13.374;2024-03-06T01:57:47;7.80;99.90
2130;DHT22;1071;52.544;13.374;2024-03-06T02:00:22;7.80;99.90
2130;DHT22;1071;52.544;13.374;2024-03-06T02:02:54;7.80;99.90
2130;DHT22;1071;52.544;13.374;2024-03-06T02:05:22;7.80;99.90
2130;DHT22;1071;52.544;13.374;2024-03-06T02:07:53;7.70;99.90
2130;DHT22;1071;52.544;13.374;2024-03-06T02:10:21;7.70;99.90
2130;DHT22;1071;52.544;13.374;2024-03-06T02:12:52;7.70;99.90
2130;DHT22;1071;52.544;13.374;2024-03-06T02:15:22;7.70;99.90
2130;DHT22;1071;52.544;13.374;2024-03-06T02:17:49;7.70;99.90
2130;DHT22;1071;52.544;13.374;2024-03-06T02:20:23;7.70;99.90
2130;DHT22;1071;52.544;13.374;2024-03-06T02:22:50;7.70;99.90
2130;DHT22;1071;52.544;13.374;2024-03-06T02:25:18;7.70;99.90
2130;DHT22;1071;52.544;13.374;2024-03-06T02:27:46;7.70;99.90
2130;DHT22;1071;52.544;13.374;2024-03-06T02:30:14;7.70;99.90
2130;DHT22;1071;52.544;13.374;2024-03-06T02:32:42;7.70;99.90
2130;DHT22;1071;52.544;13.374;2024-03-06T02:35:09;7.70;99.90
2130;DHT22;1071;52.544;13.374;2024-03-06T02:37:38;7.70;99.90
2130;DHT22;1071;52.544;13.374;2024-03-06T02:40:06;7.70;99.90
2130;DHT22;1071;52.544;13.374;2024-03-06T02:42:36;7.70;99.90
2130;DHT22;1071;52.544;13.374;2024-03-06T02:45:05;7.70;99.90
2130;DHT22;1071;52.544;13.374;2024-03-06T02:47:35;7.70;99.90
2130;DHT22;1071;52.544;13.374;2024-03-06T02:50:05;7.70;99.90
2130;DHT22;1071;52.544;13.374;2024-03-06T02:52:33;7.60;99.90
2130;DHT22;1071;52.544;13.374;2024-03-06T02:55:01;7.60;99.90
2130;DHT22;1071;52.544;13.374;2024-03-06T02:57:28;7.60;99.90
2130;DHT22;1071;52.544;13.374;2024-03-06T02:59:56;7.60;99.90
2130;DHT22;1071;52.544;13.374;2024-03-06T03:02:24;7.60;99.90
2130;DHT22;1071;52.544;13.374;2024-03-06T03:04:51;7.70;99.90
2130;DHT22;1071;52.544;13.374;2024-03-06T03:07:19;7.70;99.90
2130;DHT22;1071;52.544;13.374;2024-03-06T03:09:46;7.60;99.90
2130;DHT22;1071;52.544;13.374;2024-03-06T03:12:15;7.60;99.90
2130;DHT22;1071;52.544;13.374;2024-03-06T03:14:42;7.60;99.90
2130;DHT22;1071;52.544;13.374;2024-03-06T03:17:09;7.60;99.90
2130;DHT22;1071;52.544;13.374;2024-03-06T03:19:40;7.60;99.90
2130;DHT22;1071;52.544;13.374;2024-03-06T03:22:08;7.60;99.90
2130;DHT22;1071;52.544;13.374;2024-03-06T03:24:35;7.60;99.90
2130;DHT22;1071;52.544;13.374;2024-03-06T03:27:03;7.60;99.90
2130;DHT22;1071;52.544;13.374;2024-03-06T03:29:31;7.60;99.90
2130;DHT22;1071;52.544;13.374;2024-03-06T03:31:58;7.50;99.90
2130;DHT22;1071;52.544;13.374;2024-03-06T03:34:25;7.50;99.90
2130;DHT22;1071;52.544;13.374;2024-03-06T03:36:52;7.50;99.90
2130;DHT22;1071;52.544;13.374;2024-03-06T03:39:19;7.50;99.90
2130;DHT22;1071;52.544;13.374;2024-03-06T03:41:49;7.50;99.90
2130;DHT22;1071;52.544;13.374;2024-03-06T03:44:17;7.50;99.90
2130;DHT22;1071;52.544;13.374;2024-03-06T03:46:46;7.40;99.90
2130;DHT22;1071;52.544;13.374;2024-03-06T03:49:14;7.50;99.90
2130;DHT22;1071;52.544;13.374;2024-03-06T03:51:41;7.40;99.90
2130;DHT22;1071;52.544;13.374;2024-03-06T03:54:08;7.40;99.90
2130;DHT22;1071;52.544;13.374;2024-03-06T03:56:35;7.40;99.90
2130;DHT22;1071;52.544;13.374;2024-03-06T03:59:03;7.40;99.90
2130;DHT22;1071;52.544;13.374;2024-03-06T04:01:30;7.40;99.90
2130;DHT22;1071;52.544;13.374;2024-03-06T04:03:58;7.40;99.90
2130;DHT22;1071;52.544;13.374;2024-03-06T04:06:25;7.40;99.90
2130;DHT22;1071;52.544;13.374;2024-03-06T04:08:52;7.30;99.90
2130;DHT22;1071;52.544;13.374;2024-03-06T04:11:19;7.30;99.90
2130;DHT22;1071;52.544;13.374;2024-03-06T04:13:46;7.30;99.90
2130;DHT22;1071;52.544;13.374;2024-03-06T04:16:16;7.30;99.90
2130;DHT22;1071;52.544;13.374;2024-03-06T04:18:44;7.30;99.90
2130;DHT22;1071;52.544;13.374;2024-03-06T04:21:13;7.30;99.90
2130;DHT22;1071;52.544;13.374;2024-03-06T04:23:40;7.20;99.90
2130;DHT22;1071;52.544;13.374;2024-03-06T04:26:08;7.30;99.90
2130;DHT22;1071;52.544;13.374;2024-03-06T04:28:36;7.30;99.90
2130;DHT22;1071;52.544;13.374;2024-03-06T04:31:08;7.30;99.90
2130;DHT22;1071;52.544;13.374;2024-03-06T04:33:38;7.30;99.90
2130;DHT22;1071;52.544;13.374;2024-03-06T04:36:08;7.30;99.90
2130;DHT22;1071;52.544;13.374;2024-03-06T04:38:36;7.30;99.90
2130;DHT22;1071;52.544;13.374;2024-03-06T04:41:05;7.30;99.90
2130;DHT22;1071;52.544;13.374;2024-03-06T04:43:36;7.30;99.90
2130;DHT22;1071;52.544;13.374;2024-03-06T04:46:04;7.20;99.90
2130;DHT22;1071;52.544;13.374;2024-03-06T04:48:31;7.20;99.90
2130;DHT22;1071;52.544;13.374;2024-03-06T04:51:01;7.10;99.90
2130;DHT22;1071;52.544;13.374;2024-03-06T04:53:31;7.20;99.90
2130;DHT22;1071;52.544;13.374;2024-03-06T04:56:16;7.10;99.90
2130;DHT22;1071;52.544;13.374;2024-03-06T04:58:47;7.10;99.90
2130;DHT22;1071;52.544;13.374;2024-03-06T05:01:14;7.10;99.90
2130;DHT22;1071;52.544;13.374;2024-03-06T05:03:41;7.20;99.90
2130;DHT22;1071;52.544;13.374;2024-03-06T05:06:08;7.10;99.90
2130;DHT22;1071;52.544;13.374;2024-03-06T05:08:35;7.10;99.90
2130;DHT22;1071;52.544;13.374;2024-03-06T05:11:03;7.10;99.90
2130;DHT22;1071;52.544;13.374;2024-03-06T05:13:33;7.10;99.90
2130;DHT22;1071;52.544;13.374;2024-03-06T05:16:00;7.00;99.90
2130;DHT22;1071;52.544;13.374;2024-03-06T05:18:27;7.00;99.90
2130;DHT22;1071;52.544;13.374;2024-03-06T05:20:54;7.00;99.90
2130;DHT22;1071;52.544;13.374;2024-03-06T05:23:21;7.00;99.90
2130;DHT22;1071;52.544;13.374;2024-03-06T05:25:48;6.90;99.90
2130;DHT22;1071;52.544;13.374;2024-03-06T05:28:15;6.90;99.90
2130;DHT22;1071;52.544;13.374;2024-03-06T05:30:44;6.90;99.90
2130;DHT22;1071;52.544;13.374;2024-03-06T05:33:11;6.90;99.90
2130;DHT22;1071;52.544;13.374;2024-03-06T05:35:38;6.90;99.90
2130;DHT22;1071;52.544;13.374;2024-03-06T05:38:06;6.90;99.90
2130;DHT22;1071;52.544;13.374;2024-03-06T05:40:34;6.90;99.90
2130;DHT22;1071;52.544;13.374;2024-03-06T05:43:03;6.90;99.90
2130;DHT22;1071;52.544;13.374;2024-03-06T05:45:30;6.90;99.90
2130;DHT22;1071;52.544;13.374;2024-03-06T05:47:59;6.90;99.90
2130;DHT22;1071;52.544;13.374;2024-03-06T05:50:26;6.90;99.90
2130;DHT22;1071;52.544;13.374;2024-03-06T05:52:53;6.90;99.90
2130;DHT22;1071;52.544;13.374;2024-03-06T05:55:22;6.90;99.90
2130;DHT22;1071;52.544;13.374;2024-03-06T05:57:49;6.80;99.90
2130;DHT22;1071;52.544;13.374;2024-03-06T06:00:16;6.80;99.90
2130;DHT22;1071;52.544;13.374;2024-03-06T06:02:43;6.80;99.90
2130;DHT22;1071;52.544;13.374;2024-03-06T06:05:13;6.70;99.90
2130;DHT22;1071;52.544;13.374;2024-03-06T06:07:40;6.70;99.90
2130;DHT22;1071;52.544;13.374;2024-03-06T06:10:07;6.70;99.90
2130;DHT22;1071;52.544;13.374;2024-03-06T06:12:35;6.60;99.90
2130;DHT22;1071;52.544;13.374;2024-03-06T06:15:02;6.60;99.90
2130;DHT22;1071;52.544;13.374;2024-03-06T06:17:30;6.60;99.90
2130;DHT22;1071;52.544;13.374;2024-03-06T06:19:57;6.60;99.90
2130;DHT22;1071;52.544;13.374;2024-03-06T06:22:28;6.60;99.90
2130;DHT22;1071;52.544;13.374;2024-03-06T06:24:56;6.70;99.90
2130;DHT22;1071;52.544;13.374;2024-03-06T06:27:23;6.60;99.90
2130;DHT22;1071;52.544;13.374;2024-03-06T06:29:50;6.60;99.90
2130;DHT22;1071;52.544;13.374;2024-03-06T06:32:20;6.70;99.90
2130;DHT22;1071;52.544;13.374;2024-03-06T06:34:47;6.70;99.90
2130;DHT22;1071;52.544;13.374;2024-03-06T06:37:17;6.70;99.90
2130;DHT22;1071;52.544;13.374;2024-03-06T06:39:46;6.70;99.90
2130;DHT22;1071;52.544;13.374;2024-03-06T06:42:14;6.70;99.90
2130;DHT22;1071;52.544;13.374;2024-03-06T06:44:41;6.70;99.90
2130;DHT22;1071;52.544;13.374;2024-03-06T06:47:08;6.80;99.90
2130;DHT22;1071;52.544;13.374;2024-03-06T06:49:43;6.70;99.90
2130;DHT22;1071;52.544;13.374;2024-03-06T06:52:14;6.70;99.90
2130;DHT22;1071;52.544;13.374;2024-03-06T06:54:41;6.80;99.90
2130;DHT22;1071;52.544;13.374;2024-03-06T06:57:10;6.80;99.90
2130;DHT22;1071;52.544;13.374;2024-03-06T06:59:36;6.80;99.90
2130;DHT22;1071;52.544;13.374;2024-03-06T07:02:03;6.70;99.90
2130;DHT22;1071;52.544;13.374;2024-03-06T07:04:31;6.70;99.90
2130;DHT22;1071;52.544;13.374;2024-03-06T07:06:58;6.70;99.90
2130;DHT22;1071;52.544;13.374;2024-03-06T07:09:25;6.70;99.90
2130;DHT22;1071;52.544;13.374;2024-03-06T07:11:54;6.70;99.90
2130;DHT22;1071;52.544;13.374;2024-03-06T07:14:23;6.70;99.90
2130;DHT22;1071;52.544;13.374;2024-03-06T07:16:50;6.80;99.90
2130;DHT22;1071;52.544;13.374;2024-03-06T07:19:17;6.80;99.90
2130;DHT22;1071;52.544;13.374;2024-03-06T07:21:45;6.90;99.90
2130;DHT22;1071;52.544;13.374;2024-03-06T07:24:15;7.00;99.90
2130;DHT22;1071;52.544;13.374;2024-03-06T07:26:43;7.00;99.90
2130;DHT22;1071;52.544;13.374;2024-03-06T07:29:10;7.10;99.90
2130;DHT22;1071;52.544;13.374;2024-03-06T07:31:42;7.10;99.90
2130;DHT22;1071;52.544;13.374;2024-03-06T07:34:09;7.20;99.90
2130;DHT22;1071;52.544;13.374;2024-03-06T07:36:36;7.30;99.90
2130;DHT22;1071;52.544;13.374;2024-03-06T07:39:04;7.40;99.90
2130;DHT22;1071;52.544;13.374;2024-03-06T07:41:31;7.40;99.90
2130;DHT22;1071;52.544;13.374;2024-03-06T07:43:59;7.50;99.90
2130;DHT22;1071;52.544;13.374;2024-03-06T07:46:26;7.50;99.90
2130;DHT22;1071;52.544;13.374;2024-03-06T07:48:54;7.60;99.90
2130;DHT22;1071;52.544;13.374;2024-03-06T07:51:21;7.70;99.90
2130;DHT22;1071;52.544;13.374;2024-03-06T07:53:48;7.70;99.90
2130;DHT22;1071;52.544;13.374;2024-03-06T07:56:16;7.80;99.90
2130;DHT22;1071;52.544;13.374;2024-03-06T07:58:43;7.90;99.90
2130;DHT22;1071;52.544;13.374;2024-03-06T08:01:13;7.90;99.90
2130;DHT22;1071;52.544;13.374;2024-03-06T08:03:40;7.90;99.90
2130;DHT22;1071;52.544;13.374;2024-03-06T08:06:10;8.00;99.90
2130;DHT22;1071;52.544;13.374;2024-03-06T08:08:39;8.00;99.90
2130;DHT22;1071;52.544;13.374;2024-03-06T08:11:06;8.00;99.90
2130;DHT22;1071;52.544;13.374;2024-03-06T08:13:35;8.00;99.90
2130;DHT22;1071;52.544;13.374;2024-03-06T08:16:03;8.00;99.90
2130;DHT22;1071;52.544;13.374;2024-03-06T08:18:32;8.10;99.90
2130;DHT22;1071;52.544;13.374;2024-03-06T08:21:00;8.10;99.90
2130;DHT22;1071;52.544;13.374;2024-03-06T08:23:28;8.10;99.90
2130;DHT22;1071;52.544;13.374;2024-03-06T08:25:56;8.10;99.90
2130;DHT22;1071;52.544;13.374;2024-03-06T08:28:23;8.20;99.90
2130;DHT22;1071;52.544;13.374;2024-03-06T08:30:50;8.20;99.90
2130;DHT22;1071;52.544;13.374;2024-03-06T08:33:18;8.30;99.90
2130;DHT22;1071;52.544;13.374;2024-03-06T08:35:46;8.40;99.90
2130;DHT22;1071;52.544;13.374;2024-03-06T08:38:13;8.50;99.90
2130;DHT22;1071;52.544;13.374;2024-03-06T08:40:42;8.50;99.90
2130;DHT22;1071;52.544;13.374;2024-03-06T08:43:11;8.60;99.90
2130;DHT22;1071;52.544;13.374;2024-03-06T08:45:38;8.60;99.90
2130;DHT22;1071;52.544;13.374;2024-03-06T08:48:08;8.70;99.90
2130;DHT22;1071;52.544;13.374;2024-03-06T08:50:36;8.80;99.90
2130;DHT22;1071;52.544;13.374;2024-03-06T08:53:04;8.80;99.90
2130;DHT22;1071;52.544;13.374;2024-03-06T08:55:31;8.90;99.90
2130;DHT22;1071;52.544;13.374;2024-03-06T08:57:59;9.00;99.90
2130;DHT22;1071;52.544;13.374;2024-03-06T09:00:26;9.00;99.90
2130;DHT22;1071;52.544;13.374;2024-03-06T09:02:53;9.00;99.90
2130;DHT22;1071;52.544;13.374;2024-03-06T09:05:20;9.10;99.90
2130;DHT22;1071;52.544;13.374;2024-03-06T09:07:48;9.10;99.90
2130;DHT22;1071;52.544;13.374;2024-03-06T09:10:15;9.20;99.90
2130;DHT22;1071;52.544;13.374;2024-03-06T09:12:44;9.20;99.90
2130;DHT22;1071;52.544;13.374;2024-03-06T09:15:14;9.30;99.90
2130;DHT22;1071;52.544;13.374;2024-03-06T09:17:41;9.40;99.90
2130;DHT22;1071;52.544;13.374;2024-03-06T09:20:10;9.40;99.90
2130;DHT22;1071;52.544;13.374;2024-03-06T09:22:37;9.50;99.90
2130;DHT22;1071;52.544;13.374;2024-03-06T09:25:05;9.50;99.90
2130;DHT22;1071;52.544;13.374;2024-03-06T09:27:33;9.50;99.90
2130;DHT22;1071;52.544;13.374;2024-03-06T09:29:59;9.50;99.90
2130;DHT22;1071;52.544;13.374;2024-03-06T09:32:27;9.50;99.90
2130;DHT22;1071;52.544;13.374;2024-03-06T09:34:54;9.60;99.90
2130;DHT22;1071;52.544;13.374;2024-03-06T09:37:21;9.60;99.90
2130;DHT22;1071;52.544;13.374;2024-03-06T09:39:48;9.50;99.90
2130;DHT22;1071;52.544;13.374;2024-03-06T09:42:16;9.60;99.90
2130;DHT22;1071;52.544;13.374;2024-03-06T09:44:44;9.60;99.90
2130;DHT22;1071;52.544;13.374;2024-03-06T09:47:14;9.70;99.90
2130;DHT22;1071;52.544;13.374;2024-03-06T09:49:43;9.70;99.90
2130;DHT22;1071;52.544;13.374;2024-03-06T09:52:10;9.70;99.90
2130;DHT22;1071;52.544;13.374;2024-03-06T09:54:37;9.80;99.90
2130;DHT22;1071;52.544;13.374;2024-03-06T09:57:05;9.80;99.90
2130;DHT22;1071;52.544;13.374;2024-03-06T09:59:33;9.80;99.90
2130;DHT22;1071;52.544;13.374;2024-03-06T10:02:00;9.90;99.90
2130;DHT22;1071;52.544;13.374;2024-03-06T10:04:29;9.90;99.90
2130;DHT22;1071;52.544;13.374;2024-03-06T10:07:00;9.90;99.90
2130;DHT22;1071;52.544;13.374;2024-03-06T10:09:28;10.00;99.90
2130;DHT22;1071;52.544;13.374;2024-03-06T10:11:56;10.00;99.90
2130;DHT22;1071;52.544;13.374;2024-03-06T10:14:24;10.00;99.90
2130;DHT22;1071;52.544;13.374;2024-03-06T10:16:55;10.00;99.90
2130;DHT22;1071;52.544;13.374;2024-03-06T10:19:24;10.00;99.90
2130;DHT22;1071;52.544;13.374;2024-03-06T10:21:53;10.10;99.90
2130;DHT22;1071;52.544;13.374;2024-03-06T10:24:23;10.10;99.90
2130;DHT22;1071;52.544;13.374;2024-03-06T10:26:50;10.10;99.90
2130;DHT22;1071;52.544;13.374;2024-03-06T10:29:21;10.10;99.90
2130;DHT22;1071;52.544;13.374;2024-03-06T10:31:51;10.10;99.90
2130;DHT22;1071;52.544;13.374;2024-03-06T10:34:20;10.10;99.90
2130;DHT22;1071;52.544;13.374;2024-03-06T10:36:56;10.10;99.90
2130;DHT22;1071;52.544;13.374;2024-03-06T10:39:25;10.20;99.90
2130;DHT22;1071;52.544;13.374;2024-03-06T10:41:53;10.20;99.90
2130;DHT22;1071;52.544;13.374;2024-03-06T10:44:22;10.20;99.90
2130;DHT22;1071;52.544;13.374;2024-03-06T10:46:55;10.20;99.90
2130;DHT22;1071;52.544;13.374;2024-03-06T10:49:26;10.30;99.90
2130;DHT22;1071;52.544;13.374;2024-03-06T10:51:54;10.30;99.90
2130;DHT22;1071;52.544;13.374;2024-03-06T10:54:30;10.40;99.90
2130;DHT22;1071;52.544;13.374;2024-03-06T10:56:58;10.40;99.90
2130;DHT22;1071;52.544;13.374;2024-03-06T10:59:28;10.40;99.90
2130;DHT22;1071;52.544;13.374;2024-03-06T11:01:56;10.40;99.90
2130;DHT22;1071;52.544;13.374;2024-03-06T11:04:28;10.30;99.90
2130;DHT22;1071;52.544;13.374;2024-03-06T11:06:59;10.30;99.90
2130;DHT22;1071;52.544;13.374;2024-03-06T11:09:28;10.40;99.90
2130;DHT22;1071;52.544;13.374;2024-03-06T11:11:55;10.50;99.90
2130;DHT22;1071;52.544;13.374;2024-03-06T11:14:23;10.50;99.90
2130;DHT22;1071;52.544;13.374;2024-03-06T11:16:59;10.50;99.90
2130;DHT22;1071;52.544;13.374;2024-03-06T11:19:28;10.60;99.90
2130;DHT22;1071;52.544;13.374;2024-03-06T11:21:55;10.60;99.90
2130;DHT22;1071;52.544;13.374;2024-03-06T11:24:24;10.70;99.90
2130;DHT22;1071;52.544;13.374;2024-03-06T11:27:00;10.70;99.90
2130;DHT22;1071;52.544;13.374;2024-03-06T11:29:28;10.80;99.90
2130;DHT22;1071;52.544;13.374;2024-03-06T11:32:01;10.80;99.90
2130;DHT22;1071;52.544;13.374;2024-03-06T11:34:29;10.80;99.90
2130;DHT22;1071;52.544;13.374;2024-03-06T11:36:57;10.80;99.90
2130;DHT22;1071;52.544;13.374;2024-03-06T11:39:27;10.90;99.90
2130;DHT22;1071;52.544;13.374;2024-03-06T11:41:56;10.90;99.90
2130;DHT22;1071;52.544;13.374;2024-03-06T11:44:23;11.00;99.90
2130;DHT22;1071;52.544;13.374;2024-03-06T11:46:57;11.10;99.90
2130;DHT22;1071;52.544;13.374;2024-03-06T11:49:26;11.00;99.90
2130;DHT22;1071;52.544;13.374;2024-03-06T11:51:56;11.00;99.90
2130;DHT22;1071;52.544;13.374;2024-03-06T11:54:24;11.00;99.90
2130;DHT22;1071;52.544;13.374;2024-03-06T11:56:53;10.90;99.90
2130;DHT22;1071;52.544;13.374;2024-03-06T11:59:25;10.90;99.90
2130;DHT22;1071;52.544;13.374;2024-03-06T12:01:53;11.10;99.90
2130;DHT22;1071;52.544;13.374;2024-03-06T12:04:21;11.10;99.90
2130;DHT22;1071;52.544;13.374;2024-03-06T12:06:49;11.20;99.70
2130;DHT22;1071;52.544;13.374;2024-03-06T12:09:17;11.30;99.90
2130;DHT22;1071;52.544;13.374;2024-03-06T12:11:44;11.30;99.90
2130;DHT22;1071;52.544;13.374;2024-03-06T12:14:16;11.50;99.90
2130;DHT22;1071;52.544;13.374;2024-03-06T12:16:54;11.50;99.80
2130;DHT22;1071;52.544;13.374;2024-03-06T12:19:22;11.50;99.70
2130;DHT22;1071;52.544;13.374;2024-03-06T12:21:49;11.50;99.40
2130;DHT22;1071;52.544;13.374;2024-03-06T12:24:17;11.50;99.40
2130;DHT22;1071;52.544;13.374;2024-03-06T12:26:45;11.40;99.20
2130;DHT22;1071;52.544;13.374;2024-03-06T12:29:18;11.50;99.30
2130;DHT22;1071;52.544;13.374;2024-03-06T12:31:47;11.40;99.10
2130;DHT22;1071;52.544;13.374;2024-03-06T12:34:14;11.50;99.30
2130;DHT22;1071;52.544;13.374;2024-03-06T12:36:43;11.50;99.40
2130;DHT22;1071;52.544;13.374;2024-03-06T12:39:20;11.60;99.60
2130;DHT22;1071;52.544;13.374;2024-03-06T12:41:48;11.70;99.70
2130;DHT22;1071;52.544;13.374;2024-03-06T12:44:15;11.80;99.40
2130;DHT22;1071;52.544;13.374;2024-03-06T12:46:42;11.80;99.20
2130;DHT22;1071;52.544;13.374;2024-03-06T12:49:11;11.80;99.00
2130;DHT22;1071;52.544;13.374;2024-03-06T12:51:41;11.80;98.80
2130;DHT22;1071;52.544;13.374;2024-03-06T12:54:09;11.90;98.90
2130;DHT22;1071;52.544;13.374;2024-03-06T12:56:36;11.90;99.30
2130;DHT22;1071;52.544;13.374;2024-03-06T12:59:03;11.90;99.60
2130;DHT22;1071;52.544;13.374;2024-03-06T13:01:30;11.90;99.70
2130;DHT22;1071;52.544;13.374;2024-03-06T13:03:58;11.90;99.50
2130;DHT22;1071;52.544;13.374;2024-03-06T13:06:26;11.90;99.30
2130;DHT22;1071;52.544;13.374;2024-03-06T13:08:54;11.90;99.20
2130;DHT22;1071;52.544;13.374;2024-03-06T13:11:21;12.00;98.80
2130;DHT22;1071;52.544;13.374;2024-03-06T13:13:49;11.90;98.50
2130;DHT22;1071;52.544;13.374;2024-03-06T13:16:16;11.90;98.20
2130;DHT22;1071;52.544;13.374;2024-03-06T13:18:43;11.80;98.20
2130;DHT22;1071;52.544;13.374;2024-03-06T13:21:10;11.80;98.30
2130;DHT22;1071;52.544;13.374;2024-03-06T13:23:38;11.80;98.40
2130;DHT22;1071;52.544;13.374;2024-03-06T13:26:05;11.70;98.40
2130;DHT22;1071;52.544;13.374;2024-03-06T13:28:32;11.70;98.60
2130;DHT22;1071;52.544;13.374;2024-03-06T13:30:59;11.70;98.70
2130;DHT22;1071;52.544;13.374;2024-03-06T13:33:26;11.70;98.70
2130;DHT22;1071;52.544;13.374;2024-03-06T13:35:53;11.70;98.60
2130;DHT22;1071;52.544;13.374;2024-03-06T13:38:30;11.70;97.90
2130;DHT22;1071;52.544;13.374;2024-03-06T13:40:58;11.70;97.70
2130;DHT22;1071;52.544;13.374;2024-03-06T13:43:27;11.70;97.70
2130;DHT22;1071;52.544;13.374;2024-03-06T13:45:54;11.70;97.20
2130;DHT22;1071;52.544;13.374;2024-03-06T13:48:21;11.70;97.00
2130;DHT22;1071;52.544;13.374;2024-03-06T13:50:49;11.80;96.60
2130;DHT22;1071;52.544;13.374;2024-03-06T13:53:16;11.70;96.20
2130;DHT22;1071;52.544;13.374;2024-03-06T13:55:43;11.80;96.40
2130;DHT22;1071;52.544;13.374;2024-03-06T13:58:11;11.70;96.30
2130;DHT22;1071;52.544;13.374;2024-03-06T14:00:38;11.70;96.10
2130;DHT22;1071;52.544;13.374;2024-03-06T14:03:05;11.70;96.10
2130;DHT22;1071;52.544;13.374;2024-03-06T14:05:32;11.70;95.60
2130;DHT22;1071;52.544;13.374;2024-03-06T14:07:59;11.70;95.20
2130;DHT22;1071;52.544;13.374;2024-03-06T14:10:26;11.70;95.10
2130;DHT22;1071;52.544;13.374;2024-03-06T14:12:55;11.60;95.30
2130;DHT22;1071;52.544;13.374;2024-03-06T14:15:25;11.60;95.10
2130;DHT22;1071;52.544;13.374;2024-03-06T14:17:57;11.50;95.30
2130;DHT22;1071;52.544;13.374;2024-03-06T14:20:25;11.50;95.30
2130;DHT22;1071;52.544;13.374;2024-03-06T14:22:52;11.40;95.20
2130;DHT22;1071;52.544;13.374;2024-03-06T14:25:19;11.50;95.30
2130;DHT22;1071;52.544;13.374;2024-03-06T14:27:46;11.40;95.30
2130;DHT22;1071;52.544;13.374;2024-03-06T14:30:14;11.40;95.00
2130;DHT22;1071;52.544;13.374;2024-03-06T14:32:45;11.30;95.50
2130;DHT22;1071;52.544;13.374;2024-03-06T14:35:12;11.30;95.90
2130;DHT22;1071;52.544;13.374;2024-03-06T14:37:40;11.30;96.40
2130;DHT22;1071;52.544;13.374;2024-03-06T14:40:08;11.30;96.70
2130;DHT22;1071;52.544;13.374;2024-03-06T14:42:35;11.30;97.00
2130;DHT22;1071;52.544;13.374;2024-03-06T14:45:05;11.30;97.70
2130;DHT22;1071;52.544;13.374;2024-03-06T14:47:32;11.30;98.00
2130;DHT22;1071;52.544;13.374;2024-03-06T14:50:01;11.20;98.00
2130;DHT22;1071;52.544;13.374;2024-03-06T14:52:28;11.10;98.30
2130;DHT22;1071;52.544;13.374;2024-03-06T14:54:55;11.10;98.20
2130;DHT22;1071;52.544;13.374;2024-03-06T14:57:22;11.00;98.10
2130;DHT22;1071;52.544;13.374;2024-03-06T14:59:49;11.00;98.00
2130;DHT22;1071;52.544;13.374;2024-03-06T15:02:16;11.10;97.80
2130;DHT22;1071;52.544;13.374;2024-03-06T15:04:43;11.20;97.40
2130;DHT22;1071;52.544;13.374;2024-03-06T15:07:12;11.20;96.50
2130;DHT22;1071;52.544;13.374;2024-03-06T15:09:39;11.20;95.90
2130;DHT22;1071;52.544;13.374;2024-03-06T15:12:13;11.30;95.90
2130;DHT22;1071;52.544;13.374;2024-03-06T15:14:43;11.30;96.00
2130;DHT22;1071;52.544;13.374;2024-03-06T15:17:12;11.40;96.10
2130;DHT22;1071;52.544;13.374;2024-03-06T15:19:39;11.30;96.20
2130;DHT22;1071;52.544;13.374;2024-03-06T15:22:06;11.30;96.60
2130;DHT22;1071;52.544;13.374;2024-03-06T15:24:35;11.30;97.40
2130;DHT22;1071;52.544;13.374;2024-03-06T15:27:10;11.40;97.30
2130;DHT22;1071;52.544;13.374;2024-03-06T15:29:40;11.40;98.00
2130;DHT22;1071;52.544;13.374;2024-03-06T15:32:09;11.50;97.80
2130;DHT22;1071;52.544;13.374;2024-03-06T15:34:39;11.50;98.00
2130;DHT22;1071;52.544;13.374;2024-03-06T15:37:06;11.60;98.20
2130;DHT22;1071;52.544;13.374;2024-03-06T15:39:35;11.60;98.40
2130;DHT22;1071;52.544;13.374;2024-03-06T15:42:02;11.60;98.40
2130;DHT22;1071;52.544;13.374;2024-03-06T15:44:29;11.70;98.60
2130;DHT22;1071;52.544;13.374;2024-03-06T15:46:58;11.70;98.60
2130;DHT22;1071;52.544;13.374;2024-03-06T15:49:29;11.60;98.70
2130;DHT22;1071;52.544;13.374;2024-03-06T15:51:56;11.60;98.90
2130;DHT22;1071;52.544;13.374;2024-03-06T15:54:23;11.60;99.30
2130;DHT22;1071;52.544;13.374;2024-03-06T15:56:51;11.60;99.40
2130;DHT22;1071;52.544;13.374;2024-03-06T15:59:18;11.60;99.60
2130;DHT22;1071;52.544;13.374;2024-03-06T16:01:46;11.60;99.60